sensor_id;sensor_type;location;lat;lon;timestamp;P1;durP1;ratioP1;P2;durP2;ratioP2
55575;SDS011;41437;45.478;9.116;2022-09-03T00:01:28;15.13;;;9.23;;
55575;SDS011;41437;45.478;9.116;2022-09-03T00:04:38;13.88;;;8.82;;
55575;SDS011;41437;45.478;9.116;2022-09-03T00:07:49;12.10;;;8.68;;
55575;SDS011;41437;45.478;9.116;2022-09-03T00:10:57;12.32;;;9.05;;
55575;SDS011;41437;45.478;9.116;2022-09-03T00:14:06;12.02;;;8.07;;
55575;SDS011;41437;45.478;9.116;2022-09-03T00:17:12;11.88;;;7.78;;
55575;SDS011;41437;45.478;9.116;2022-09-03T00:20:16;9.55;;;7.80;;
55575;SDS011;41437;45.478;9.116;2022-09-03T00:23:23;9.20;;;7.63;;
55575;SDS011;41437;45.478;9.116;2022-09-03T00:26:28;11.32;;;7.88;;
55575;SDS011;41437;45.478;9.116;2022-09-03T00:29:36;10.55;;;7.90;;
55575;SDS011;41437;45.478;9.116;2022-09-03T00:32:42;11.70;;;8.15;;
55575;SDS011;41437;45.478;9.116;2022-09-03T00:35:48;14.13;;;10.25;;
55575;SDS011;41437;45.478;9.116;2022-09-03T00:38:54;11.85;;;9.68;;
55575;SDS011;41437;45.478;9.116;2022-09-03T00:45:11;13.45;;;9.68;;
55575;SDS011;41437;45.478;9.116;2022-09-03T00:48:25;11.63;;;9.10;;
55575;SDS011;41437;45.478;9.116;2022-09-03T00:51:32;13.50;;;10.02;;
55575;SDS011;41437;45.478;9.116;2022-09-03T00:54:45;12.15;;;9.35;;
55575;SDS011;41437;45.478;9.116;2022-09-03T00:57:57;15.55;;;10.52;;
55575;SDS011;41437;45.478;9.116;2022-09-03T01:01:15;13.07;;;10.77;;
55575;SDS011;41437;45.478;9.116;2022-09-03T01:04:28;14.35;;;10.68;;
55575;SDS011;41437;45.478;9.116;2022-09-03T01:07:43;12.95;;;11.60;;
55575;SDS011;41437;45.478;9.116;2022-09-03T01:10:52;13.65;;;11.13;;
55575;SDS011;41437;45.478;9.116;2022-09-03T01:14:00;14.65;;;12.45;;
55575;SDS011;41437;45.478;9.116;2022-09-03T01:17:14;14.23;;;11.68;;
55575;SDS011;41437;45.478;9.116;2022-09-03T01:20:26;15.65;;;11.88;;
55575;SDS011;41437;45.478;9.116;2022-09-03T01:23:47;14.68;;;12.15;;
55575;SDS011;41437;45.478;9.116;2022-09-03T01:27:31;17.95;;;13.93;;
55575;SDS011;41437;45.478;9.116;2022-09-03T01:30:44;20.67;;;14.48;;
55575;SDS011;41437;45.478;9.116;2022-09-03T01:33:57;21.02;;;16.02;;
55575;SDS011;41437;45.478;9.116;2022-09-03T01:37:10;20.17;;;15.50;;
55575;SDS011;41437;45.478;9.116;2022-09-03T01:40:20;17.65;;;15.85;;
55575;SDS011;41437;45.478;9.116;2022-09-03T01:43:33;19.73;;;15.45;;
55575;SDS011;41437;45.478;9.116;2022-09-03T01:46:45;18.13;;;15.73;;
55575;SDS011;41437;45.478;9.116;2022-09-03T01:49:52;20.35;;;16.38;;
55575;SDS011;41437;45.478;9.116;2022-09-03T01:53:04;17.98;;;15.88;;
55575;SDS011;41437;45.478;9.116;2022-09-03T01:56:14;17.17;;;15.05;;
55575;SDS011;41437;45.478;9.116;2022-09-03T01:59:26;15.57;;;13.38;;
55575;SDS011;41437;45.478;9.116;2022-09-03T02:02:34;16.95;;;13.60;;
55575;SDS011;41437;45.478;9.116;2022-09-03T02:05:36;14.68;;;13.18;;
55575;SDS011;41437;45.478;9.116;2022-09-03T02:08:38;16.45;;;13.18;;
55575;SDS011;41437;45.478;9.116;2022-09-03T02:11:40;15.10;;;13.57;;
55575;SDS011;41437;45.478;9.116;2022-09-03T02:14:45;13.18;;;11.55;;
55575;SDS011;41437;45.478;9.116;2022-09-03T02:17:49;13.10;;;10.57;;
55575;SDS011;41437;45.478;9.116;2022-09-03T02:20:53;12.63;;;11.18;;
55575;SDS011;41437;45.478;9.116;2022-09-03T02:23:56;13.85;;;10.90;;
55575;SDS011;41437;45.478;9.116;2022-09-03T02:26:57;11.82;;;10.18;;
55575;SDS011;41437;45.478;9.116;2022-09-03T02:29:59;16.63;;;11.50;;
55575;SDS011;41437;45.478;9.116;2022-09-03T02:33:02;12.88;;;11.52;;
55575;SDS011;41437;45.478;9.116;2022-09-03T02:36:04;14.68;;;11.25;;
55575;SDS011;41437;45.478;9.116;2022-09-03T02:39:08;12.88;;;10.95;;
55575;SDS011;41437;45.478;9.116;2022-09-03T02:42:10;12.32;;;10.48;;
55575;SDS011;41437;45.478;9.116;2022-09-03T02:45:18;14.15;;;10.60;;
55575;SDS011;41437;45.478;9.116;2022-09-03T02:48:26;11.50;;;9.95;;
55575;SDS011;41437;45.478;9.116;2022-09-03T02:51:30;11.55;;;9.45;;
55575;SDS011;41437;45.478;9.116;2022-09-03T02:54:33;11.35;;;10.02;;
55575;SDS011;41437;45.478;9.116;2022-09-03T02:57:35;10.95;;;9.20;;
55575;SDS011;41437;45.478;9.116;2022-09-03T03:00:36;11.82;;;9.35;;
55575;SDS011;41437;45.478;9.116;2022-09-03T03:03:39;10.40;;;8.70;;
55575;SDS011;41437;45.478;9.116;2022-09-03T03:06:43;9.73;;;8.55;;
55575;SDS011;41437;45.478;9.116;2022-09-03T03:09:44;10.13;;;7.90;;
55575;SDS011;41437;45.478;9.116;2022-09-03T03:12:46;9.80;;;8.27;;
55575;SDS011;41437;45.478;9.116;2022-09-03T03:15:48;10.23;;;8.13;;
55575;SDS011;41437;45.478;9.116;2022-09-03T03:18:50;9.45;;;7.15;;
55575;SDS011;41437;45.478;9.116;2022-09-03T03:21:53;8.75;;;6.90;;
55575;SDS011;41437;45.478;9.116;2022-09-03T03:24:54;8.20;;;6.85;;
55575;SDS011;41437;45.478;9.116;2022-09-03T03:27:56;8.07;;;6.50;;
55575;SDS011;41437;45.478;9.116;2022-09-03T03:31:03;8.30;;;6.07;;
55575;SDS011;41437;45.478;9.116;2022-09-03T03:34:07;7.70;;;6.57;;
55575;SDS011;41437;45.478;9.116;2022-09-03T03:37:09;8.38;;;6.32;;
55575;SDS011;41437;45.478;9.116;2022-09-03T03:40:11;6.68;;;5.75;;
55575;SDS011;41437;45.478;9.116;2022-09-03T03:43:14;8.50;;;6.10;;
55575;SDS011;41437;45.478;9.116;2022-09-03T03:46:16;7.43;;;5.45;;
55575;SDS011;41437;45.478;9.116;2022-09-03T03:49:18;8.45;;;6.18;;
55575;SDS011;41437;45.478;9.116;2022-09-03T03:52:20;7.20;;;6.05;;
55575;SDS011;41437;45.478;9.116;2022-09-03T03:55:22;8.85;;;6.25;;
55575;SDS011;41437;45.478;9.116;2022-09-03T03:58:23;8.80;;;6.90;;
55575;SDS011;41437;45.478;9.116;2022-09-03T04:01:26;8.27;;;6.38;;
55575;SDS011;41437;45.478;9.116;2022-09-03T04:04:30;8.90;;;6.45;;
55575;SDS011;41437;45.478;9.116;2022-09-03T04:07:31;8.82;;;6.40;;
55575;SDS011;41437;45.478;9.116;2022-09-03T04:10:33;8.35;;;6.10;;
55575;SDS011;41437;45.478;9.116;2022-09-03T04:13:35;7.35;;;5.22;;
55575;SDS011;41437;45.478;9.116;2022-09-03T04:16:38;7.38;;;5.57;;
55575;SDS011;41437;45.478;9.116;2022-09-03T04:19:42;10.70;;;6.03;;
55575;SDS011;41437;45.478;9.116;2022-09-03T04:22:47;8.05;;;5.55;;
55575;SDS011;41437;45.478;9.116;2022-09-03T04:25:50;11.13;;;6.38;;
55575;SDS011;41437;45.478;9.116;2022-09-03T04:28:52;8.18;;;6.10;;
55575;SDS011;41437;45.478;9.116;2022-09-03T04:31:54;8.90;;;5.97;;
55575;SDS011;41437;45.478;9.116;2022-09-03T04:35:14;6.50;;;5.43;;
55575;SDS011;41437;45.478;9.116;2022-09-03T04:38:16;8.27;;;5.93;;
55575;SDS011;41437;45.478;9.116;2022-09-03T04:41:19;8.80;;;5.75;;
55575;SDS011;41437;45.478;9.116;2022-09-03T04:44:23;11.05;;;5.70;;
55575;SDS011;41437;45.478;9.116;2022-09-03T04:47:25;9.07;;;6.15;;
55575;SDS011;41437;45.478;9.116;2022-09-03T04:50:29;6.65;;;5.55;;
55575;SDS011;41437;45.478;9.116;2022-09-03T04:53:35;8.95;;;5.68;;
55575;SDS011;41437;45.478;9.116;2022-09-03T04:56:41;8.10;;;5.30;;
55575;SDS011;41437;45.478;9.116;2022-09-03T04:59:42;8.73;;;5.55;;
55575;SDS011;41437;45.478;9.116;2022-09-03T05:02:44;6.80;;;5.35;;
55575;SDS011;41437;45.478;9.116;2022-09-03T05:08:55;6.10;;;4.85;;
55575;SDS011;41437;45.478;9.116;2022-09-03T05:11:57;8.73;;;5.60;;
55575;SDS011;41437;45.478;9.116;2022-09-03T05:14:59;7.38;;;5.32;;
55575;SDS011;41437;45.478;9.116;2022-09-03T05:18:01;7.93;;;5.25;;
55575;SDS011;41437;45.478;9.116;2022-09-03T05:21:05;6.10;;;5.03;;
55575;SDS011;41437;45.478;9.116;2022-09-03T05:24:09;7.55;;;4.78;;
55575;SDS011;41437;45.478;9.116;2022-09-03T05:27:10;8.02;;;5.10;;
55575;SDS011;41437;45.478;9.116;2022-09-03T05:30:13;8.32;;;5.05;;
55575;SDS011;41437;45.478;9.116;2022-09-03T05:33:15;6.28;;;4.38;;
55575;SDS011;41437;45.478;9.116;2022-09-03T05:36:19;7.88;;;5.22;;
55575;SDS011;41437;45.478;9.116;2022-09-03T05:39:22;8.30;;;4.38;;
55575;SDS011;41437;45.478;9.116;2022-09-03T05:42:23;8.45;;;4.85;;
55575;SDS011;41437;45.478;9.116;2022-09-03T05:45:27;8.35;;;4.60;;
55575;SDS011;41437;45.478;9.116;2022-09-03T05:48:29;8.68;;;4.63;;
55575;SDS011;41437;45.478;9.116;2022-09-03T05:51:34;9.05;;;4.40;;
55575;SDS011;41437;45.478;9.116;2022-09-03T05:54:38;9.60;;;4.50;;
55575;SDS011;41437;45.478;9.116;2022-09-03T05:57:40;7.78;;;4.20;;
55575;SDS011;41437;45.478;9.116;2022-09-03T06:00:42;7.45;;;4.07;;
55575;SDS011;41437;45.478;9.116;2022-09-03T06:03:44;8.02;;;4.28;;
55575;SDS011;41437;45.478;9.116;2022-09-03T06:09:50;6.00;;;4.03;;
55575;SDS011;41437;45.478;9.116;2022-09-03T06:12:51;7.30;;;3.88;;
55575;SDS011;41437;45.478;9.116;2022-09-03T06:15:55;5.75;;;3.85;;
55575;SDS011;41437;45.478;9.116;2022-09-03T06:18:57;4.65;;;3.08;;
55575;SDS011;41437;45.478;9.116;2022-09-03T06:22:00;9.98;;;3.88;;
55575;SDS011;41437;45.478;9.116;2022-09-03T06:25:02;6.78;;;3.58;;
55575;SDS011;41437;45.478;9.116;2022-09-03T06:28:04;8.55;;;4.07;;
55575;SDS011;41437;45.478;9.116;2022-09-03T06:31:08;6.15;;;3.53;;
55575;SDS011;41437;45.478;9.116;2022-09-03T06:34:12;5.70;;;3.10;;
55575;SDS011;41437;45.478;9.116;2022-09-03T06:37:19;6.88;;;3.53;;
55575;SDS011;41437;45.478;9.116;2022-09-03T06:40:21;5.75;;;3.05;;
55575;SDS011;41437;45.478;9.116;2022-09-03T06:43:25;5.50;;;3.30;;
55575;SDS011;41437;45.478;9.116;2022-09-03T06:46:26;5.72;;;2.97;;
55575;SDS011;41437;45.478;9.116;2022-09-03T06:49:29;5.63;;;3.08;;
55575;SDS011;41437;45.478;9.116;2022-09-03T06:52:32;6.22;;;3.10;;
55575;SDS011;41437;45.478;9.116;2022-09-03T06:55:34;5.28;;;2.92;;
55575;SDS011;41437;45.478;9.116;2022-09-03T06:58:40;5.35;;;2.85;;
55575;SDS011;41437;45.478;9.116;2022-09-03T07:01:43;4.07;;;2.85;;
55575;SDS011;41437;45.478;9.116;2022-09-03T07:04:44;5.97;;;3.00;;
55575;SDS011;41437;45.478;9.116;2022-09-03T07:07:48;5.72;;;3.08;;
55575;SDS011;41437;45.478;9.116;2022-09-03T07:10:50;6.45;;;2.97;;
55575;SDS011;41437;45.478;9.116;2022-09-03T07:13:52;5.90;;;3.20;;
55575;SDS011;41437;45.478;9.116;2022-09-03T07:16:54;5.43;;;2.83;;
55575;SDS011;41437;45.478;9.116;2022-09-03T07:19:56;11.80;;;3.55;;
55575;SDS011;41437;45.478;9.116;2022-09-03T07:22:59;6.35;;;3.40;;
55575;SDS011;41437;45.478;9.116;2022-09-03T07:26:02;10.70;;;3.08;;
55575;SDS011;41437;45.478;9.116;2022-09-03T07:29:06;5.60;;;2.90;;
55575;SDS011;41437;45.478;9.116;2022-09-03T07:32:08;5.57;;;3.22;;
55575;SDS011;41437;45.478;9.116;2022-09-03T07:35:09;7.55;;;3.70;;
55575;SDS011;41437;45.478;9.116;2022-09-03T07:38:15;7.97;;;3.80;;
55575;SDS011;41437;45.478;9.116;2022-09-03T07:41:18;6.82;;;4.50;;
55575;SDS011;41437;45.478;9.116;2022-09-03T07:44:20;6.45;;;4.00;;
55575;SDS011;41437;45.478;9.116;2022-09-03T07:47:23;6.97;;;3.72;;
55575;SDS011;41437;45.478;9.116;2022-09-03T07:50:26;5.78;;;4.00;;
55575;SDS011;41437;45.478;9.116;2022-09-03T07:53:31;6.72;;;3.97;;
55575;SDS011;41437;45.478;9.116;2022-09-03T07:56:33;6.53;;;3.25;;
55575;SDS011;41437;45.478;9.116;2022-09-03T07:59:44;8.10;;;3.53;;
55575;SDS011;41437;45.478;9.116;2022-09-03T08:02:47;4.43;;;3.42;;
55575;SDS011;41437;45.478;9.116;2022-09-03T08:05:48;7.32;;;3.42;;
55575;SDS011;41437;45.478;9.116;2022-09-03T08:08:54;5.70;;;3.92;;
55575;SDS011;41437;45.478;9.116;2022-09-03T08:11:58;7.40;;;3.80;;
55575;SDS011;41437;45.478;9.116;2022-09-03T08:14:59;6.55;;;4.32;;
55575;SDS011;41437;45.478;9.116;2022-09-03T08:18:01;7.22;;;3.88;;
55575;SDS011;41437;45.478;9.116;2022-09-03T08:21:07;7.37;;;4.17;;
55575;SDS011;41437;45.478;9.116;2022-09-03T08:24:13;7.72;;;4.60;;
55575;SDS011;41437;45.478;9.116;2022-09-03T08:27:16;8.38;;;5.00;;
55575;SDS011;41437;45.478;9.116;2022-09-03T08:30:21;6.90;;;4.60;;
55575;SDS011;41437;45.478;9.116;2022-09-03T08:33:24;8.73;;;4.90;;
55575;SDS011;41437;45.478;9.116;2022-09-03T08:36:37;9.05;;;5.63;;
55575;SDS011;41437;45.478;9.116;2022-09-03T08:39:41;6.07;;;5.05;;
55575;SDS011;41437;45.478;9.116;2022-09-03T08:42:46;8.52;;;5.30;;
55575;SDS011;41437;45.478;9.116;2022-09-03T08:45:59;11.68;;;5.40;;
55575;SDS011;41437;45.478;9.116;2022-09-03T08:52:06;7.05;;;4.55;;
55575;SDS011;41437;45.478;9.116;2022-09-03T08:55:19;7.43;;;4.40;;
55575;SDS011;41437;45.478;9.116;2022-09-03T08:58:24;10.38;;;5.03;;
55575;SDS011;41437;45.478;9.116;2022-09-03T09:01:32;8.75;;;4.95;;
55575;SDS011;41437;45.478;9.116;2022-09-03T09:04:46;6.22;;;4.97;;
55575;SDS011;41437;45.478;9.116;2022-09-03T09:07:59;7.90;;;4.57;;
55575;SDS011;41437;45.478;9.116;2022-09-03T09:11:13;7.85;;;4.43;;
55575;SDS011;41437;45.478;9.116;2022-09-03T09:14:22;8.10;;;4.88;;
55575;SDS011;41437;45.478;9.116;2022-09-03T09:17:32;7.35;;;4.40;;
55575;SDS011;41437;45.478;9.116;2022-09-03T09:21:00;7.97;;;4.85;;
55575;SDS011;41437;45.478;9.116;2022-09-03T09:24:09;7.45;;;4.55;;
55575;SDS011;41437;45.478;9.116;2022-09-03T09:27:23;8.18;;;4.85;;
55575;SDS011;41437;45.478;9.116;2022-09-03T09:30:25;6.65;;;5.18;;
55575;SDS011;41437;45.478;9.116;2022-09-03T09:33:28;8.35;;;4.63;;
55575;SDS011;41437;45.478;9.116;2022-09-03T09:36:34;8.07;;;4.78;;
55575;SDS011;41437;45.478;9.116;2022-09-03T09:39:52;11.13;;;8.00;;
55575;SDS011;41437;45.478;9.116;2022-09-03T09:43:12;6.47;;;3.75;;
55575;SDS011;41437;45.478;9.116;2022-09-03T09:46:18;6.60;;;5.45;;
55575;SDS011;41437;45.478;9.116;2022-09-03T09:49:26;7.75;;;4.63;;
55575;SDS011;41437;45.478;9.116;2022-09-03T09:52:31;7.30;;;4.63;;
55575;SDS011;41437;45.478;9.116;2022-09-03T09:55:33;7.10;;;4.78;;
55575;SDS011;41437;45.478;9.116;2022-09-03T09:58:39;6.82;;;4.45;;
55575;SDS011;41437;45.478;9.116;2022-09-03T10:04:43;7.07;;;4.32;;
55575;SDS011;41437;45.478;9.116;2022-09-03T10:07:54;9.32;;;4.20;;
55575;SDS011;41437;45.478;9.116;2022-09-03T10:10:58;7.55;;;5.18;;
55575;SDS011;41437;45.478;9.116;2022-09-03T10:14:01;8.35;;;5.03;;
55575;SDS011;41437;45.478;9.116;2022-09-03T10:17:08;7.43;;;5.38;;
55575;SDS011;41437;45.478;9.116;2022-09-03T10:20:18;7.80;;;4.32;;
55575;SDS011;41437;45.478;9.116;2022-09-03T10:23:31;8.47;;;6.00;;
55575;SDS011;41437;45.478;9.116;2022-09-03T10:26:41;7.13;;;5.80;;
55575;SDS011;41437;45.478;9.116;2022-09-03T10:29:46;10.10;;;5.90;;
55575;SDS011;41437;45.478;9.116;2022-09-03T10:32:51;8.95;;;6.72;;
55575;SDS011;41437;45.478;9.116;2022-09-03T10:36:09;7.30;;;5.63;;
55575;SDS011;41437;45.478;9.116;2022-09-03T10:39:20;6.20;;;4.60;;
55575;SDS011;41437;45.478;9.116;2022-09-03T10:42:31;6.78;;;5.28;;
55575;SDS011;41437;45.478;9.116;2022-09-03T10:45:41;7.70;;;5.00;;
55575;SDS011;41437;45.478;9.116;2022-09-03T10:48:56;8.00;;;4.15;;
55575;SDS011;41437;45.478;9.116;2022-09-03T10:52:12;12.55;;;6.78;;
55575;SDS011;41437;45.478;9.116;2022-09-03T10:55:28;11.02;;;6.28;;
55575;SDS011;41437;45.478;9.116;2022-09-03T10:58:39;9.15;;;6.85;;
55575;SDS011;41437;45.478;9.116;2022-09-03T11:01:57;7.78;;;5.70;;
55575;SDS011;41437;45.478;9.116;2022-09-03T11:05:10;6.93;;;4.72;;
55575;SDS011;41437;45.478;9.116;2022-09-03T11:08:16;7.47;;;5.38;;
55575;SDS011;41437;45.478;9.116;2022-09-03T11:11:25;6.13;;;4.30;;
55575;SDS011;41437;45.478;9.116;2022-09-03T11:14:33;9.73;;;5.20;;
55575;SDS011;41437;45.478;9.116;2022-09-03T11:17:40;9.00;;;6.93;;
55575;SDS011;41437;45.478;9.116;2022-09-03T11:20:46;8.10;;;6.32;;
55575;SDS011;41437;45.478;9.116;2022-09-03T11:23:52;8.75;;;6.80;;
55575;SDS011;41437;45.478;9.116;2022-09-03T11:27:04;8.40;;;4.90;;
55575;SDS011;41437;45.478;9.116;2022-09-03T11:30:22;10.93;;;7.75;;
55575;SDS011;41437;45.478;9.116;2022-09-03T11:33:28;9.30;;;6.95;;
55575;SDS011;41437;45.478;9.116;2022-09-03T11:36:36;7.22;;;3.92;;
55575;SDS011;41437;45.478;9.116;2022-09-03T11:39:38;6.25;;;3.80;;
55575;SDS011;41437;45.478;9.116;2022-09-03T11:42:41;6.63;;;4.53;;
55575;SDS011;41437;45.478;9.116;2022-09-03T11:45:44;11.57;;;6.72;;
55575;SDS011;41437;45.478;9.116;2022-09-03T11:48:47;8.80;;;6.00;;
55575;SDS011;41437;45.478;9.116;2022-09-03T11:51:54;10.10;;;6.70;;
55575;SDS011;41437;45.478;9.116;2022-09-03T11:54:59;9.25;;;5.22;;
55575;SDS011;41437;45.478;9.116;2022-09-03T11:58:09;12.13;;;5.50;;
55575;SDS011;41437;45.478;9.116;2022-09-03T12:01:13;7.90;;;5.20;;
55575;SDS011;41437;45.478;9.116;2022-09-03T12:04:20;6.78;;;4.00;;
55575;SDS011;41437;45.478;9.116;2022-09-03T12:07:31;6.40;;;4.50;;
55575;SDS011;41437;45.478;9.116;2022-09-03T12:10:44;9.18;;;5.40;;
55575;SDS011;41437;45.478;9.116;2022-09-03T12:13:53;8.55;;;4.85;;
55575;SDS011;41437;45.478;9.116;2022-09-03T12:17:05;7.75;;;5.78;;
55575;SDS011;41437;45.478;9.116;2022-09-03T12:20:26;9.65;;;6.80;;
55575;SDS011;41437;45.478;9.116;2022-09-03T12:23:30;8.45;;;5.53;;
55575;SDS011;41437;45.478;9.116;2022-09-03T12:26:37;7.20;;;4.70;;
55575;SDS011;41437;45.478;9.116;2022-09-03T12:29:49;6.30;;;4.20;;
55575;SDS011;41437;45.478;9.116;2022-09-03T12:33:02;6.55;;;3.13;;
55575;SDS011;41437;45.478;9.116;2022-09-03T12:36:07;8.38;;;4.90;;
55575;SDS011;41437;45.478;9.116;2022-09-03T12:39:09;5.93;;;3.65;;
55575;SDS011;41437;45.478;9.116;2022-09-03T12:42:14;7.90;;;2.92;;
55575;SDS011;41437;45.478;9.116;2022-09-03T12:45:21;5.65;;;3.60;;
55575;SDS011;41437;45.478;9.116;2022-09-03T12:48:25;6.70;;;3.30;;
55575;SDS011;41437;45.478;9.116;2022-09-03T12:51:30;5.35;;;4.15;;
55575;SDS011;41437;45.478;9.116;2022-09-03T12:54:35;5.45;;;3.40;;
55575;SDS011;41437;45.478;9.116;2022-09-03T12:57:40;6.03;;;3.97;;
55575;SDS011;41437;45.478;9.116;2022-09-03T13:00:45;7.05;;;3.78;;
55575;SDS011;41437;45.478;9.116;2022-09-03T13:03:52;5.28;;;3.42;;
55575;SDS011;41437;45.478;9.116;2022-09-03T13:07:00;8.60;;;3.78;;
55575;SDS011;41437;45.478;9.116;2022-09-03T13:10:06;4.63;;;3.10;;
55575;SDS011;41437;45.478;9.116;2022-09-03T13:13:19;5.80;;;3.53;;
55575;SDS011;41437;45.478;9.116;2022-09-03T13:16:42;6.15;;;2.75;;
55575;SDS011;41437;45.478;9.116;2022-09-03T13:20:12;5.55;;;2.78;;
55575;SDS011;41437;45.478;9.116;2022-09-03T13:23:28;5.03;;;3.83;;
55575;SDS011;41437;45.478;9.116;2022-09-03T13:26:46;14.15;;;6.53;;
55575;SDS011;41437;45.478;9.116;2022-09-03T13:30:00;5.88;;;4.50;;
55575;SDS011;41437;45.478;9.116;2022-09-03T13:33:07;7.78;;;4.43;;
55575;SDS011;41437;45.478;9.116;2022-09-03T13:36:16;6.00;;;4.00;;
55575;SDS011;41437;45.478;9.116;2022-09-03T13:39:25;9.35;;;5.38;;
55575;SDS011;41437;45.478;9.116;2022-09-03T13:42:32;8.35;;;4.90;;
55575;SDS011;41437;45.478;9.116;2022-09-03T13:45:40;5.13;;;3.13;;
55575;SDS011;41437;45.478;9.116;2022-09-03T13:48:48;8.20;;;3.60;;
55575;SDS011;41437;45.478;9.116;2022-09-03T13:52:17;9.30;;;4.65;;
55575;SDS011;41437;45.478;9.116;2022-09-03T13:55:32;7.05;;;4.65;;
55575;SDS011;41437;45.478;9.116;2022-09-03T13:58:40;9.18;;;4.00;;
55575;SDS011;41437;45.478;9.116;2022-09-03T14:02:01;7.53;;;4.78;;
55575;SDS011;41437;45.478;9.116;2022-09-03T14:05:11;6.57;;;4.40;;
55575;SDS011;41437;45.478;9.116;2022-09-03T14:08:21;8.68;;;4.80;;
55575;SDS011;41437;45.478;9.116;2022-09-03T14:11:30;6.88;;;4.03;;
55575;SDS011;41437;45.478;9.116;2022-09-03T14:14:43;7.53;;;5.03;;
55575;SDS011;41437;45.478;9.116;2022-09-03T14:17:55;7.65;;;5.57;;
55575;SDS011;41437;45.478;9.116;2022-09-03T14:21:02;6.50;;;4.70;;
55575;SDS011;41437;45.478;9.116;2022-09-03T14:24:09;6.80;;;4.13;;
55575;SDS011;41437;45.478;9.116;2022-09-03T14:27:22;5.60;;;4.13;;
55575;SDS011;41437;45.478;9.116;2022-09-03T14:30:30;9.65;;;4.05;;
55575;SDS011;41437;45.478;9.116;2022-09-03T14:33:42;8.05;;;4.63;;
55575;SDS011;41437;45.478;9.116;2022-09-03T14:36:52;8.40;;;5.00;;
55575;SDS011;41437;45.478;9.116;2022-09-03T14:40:04;9.52;;;6.00;;
55575;SDS011;41437;45.478;9.116;2022-09-03T14:43:20;5.88;;;4.47;;
55575;SDS011;41437;45.478;9.116;2022-09-03T14:46:42;8.65;;;4.47;;
55575;SDS011;41437;45.478;9.116;2022-09-03T14:49:57;10.75;;;5.13;;
55575;SDS011;41437;45.478;9.116;2022-09-03T14:53:15;5.38;;;3.80;;
55575;SDS011;41437;45.478;9.116;2022-09-03T14:56:38;5.38;;;3.80;;
55575;SDS011;41437;45.478;9.116;2022-09-03T14:59:54;9.07;;;3.67;;
55575;SDS011;41437;45.478;9.116;2022-09-03T15:07:02;8.25;;;3.55;;
55575;SDS011;41437;45.478;9.116;2022-09-03T15:10:17;8.48;;;4.40;;
55575;SDS011;41437;45.478;9.116;2022-09-03T15:13:28;7.10;;;4.90;;
55575;SDS011;41437;45.478;9.116;2022-09-03T15:16:38;7.80;;;5.05;;
55575;SDS011;41437;45.478;9.116;2022-09-03T15:19:50;8.93;;;5.32;;
55575;SDS011;41437;45.478;9.116;2022-09-03T15:23:07;9.32;;;5.95;;
55575;SDS011;41437;45.478;9.116;2022-09-03T15:26:22;7.57;;;4.43;;
55575;SDS011;41437;45.478;9.116;2022-09-03T15:29:38;11.43;;;4.72;;
55575;SDS011;41437;45.478;9.116;2022-09-03T15:32:51;7.38;;;5.57;;
55575;SDS011;41437;45.478;9.116;2022-09-03T15:36:10;8.43;;;5.38;;
55575;SDS011;41437;45.478;9.116;2022-09-03T15:39:19;8.10;;;4.72;;
55575;SDS011;41437;45.478;9.116;2022-09-03T15:42:24;7.40;;;4.93;;
55575;SDS011;41437;45.478;9.116;2022-09-03T15:45:31;8.30;;;5.03;;
55575;SDS011;41437;45.478;9.116;2022-09-03T15:48:44;6.68;;;4.80;;
55575;SDS011;41437;45.478;9.116;2022-09-03T15:51:55;6.82;;;4.20;;
55575;SDS011;41437;45.478;9.116;2022-09-03T15:55:06;8.37;;;3.70;;
55575;SDS011;41437;45.478;9.116;2022-09-03T15:58:21;7.00;;;4.13;;
55575;SDS011;41437;45.478;9.116;2022-09-03T16:01:31;7.28;;;3.80;;
55575;SDS011;41437;45.478;9.116;2022-09-03T16:08:09;6.03;;;4.05;;
55575;SDS011;41437;45.478;9.116;2022-09-03T16:11:20;5.38;;;4.30;;
55575;SDS011;41437;45.478;9.116;2022-09-03T16:14:36;7.45;;;4.63;;
55575;SDS011;41437;45.478;9.116;2022-09-03T16:17:43;9.40;;;5.32;;
55575;SDS011;41437;45.478;9.116;2022-09-03T16:20:57;5.55;;;4.38;;
55575;SDS011;41437;45.478;9.116;2022-09-03T16:24:04;7.28;;;3.90;;
55575;SDS011;41437;45.478;9.116;2022-09-03T16:27:14;10.02;;;5.15;;
55575;SDS011;41437;45.478;9.116;2022-09-03T16:30:23;7.97;;;4.18;;
55575;SDS011;41437;45.478;9.116;2022-09-03T16:33:36;10.68;;;5.70;;
55575;SDS011;41437;45.478;9.116;2022-09-03T16:36:50;9.43;;;6.65;;
55575;SDS011;41437;45.478;9.116;2022-09-03T16:40:02;10.13;;;5.22;;
55575;SDS011;41437;45.478;9.116;2022-09-03T16:43:19;6.78;;;4.70;;
55575;SDS011;41437;45.478;9.116;2022-09-03T16:46:30;7.35;;;4.93;;
55575;SDS011;41437;45.478;9.116;2022-09-03T16:49:44;9.10;;;5.35;;
55575;SDS011;41437;45.478;9.116;2022-09-03T16:52:58;12.13;;;7.32;;
55575;SDS011;41437;45.478;9.116;2022-09-03T16:56:10;10.23;;;6.10;;
55575;SDS011;41437;45.478;9.116;2022-09-03T16:59:27;8.02;;;6.70;;
55575;SDS011;41437;45.478;9.116;2022-09-03T17:03:12;8.52;;;6.32;;
55575;SDS011;41437;45.478;9.116;2022-09-03T17:06:34;9.18;;;7.40;;
55575;SDS011;41437;45.478;9.116;2022-09-03T17:09:53;9.32;;;6.13;;
55575;SDS011;41437;45.478;9.116;2022-09-03T17:13:10;10.50;;;6.38;;
55575;SDS011;41437;45.478;9.116;2022-09-03T17:16:28;8.82;;;6.75;;
55575;SDS011;41437;45.478;9.116;2022-09-03T17:19:42;9.15;;;6.07;;
55575;SDS011;41437;45.478;9.116;2022-09-03T17:22:53;7.35;;;5.97;;
55575;SDS011;41437;45.478;9.116;2022-09-03T17:26:10;10.52;;;6.10;;
55575;SDS011;41437;45.478;9.116;2022-09-03T17:29:23;8.90;;;6.40;;
55575;SDS011;41437;45.478;9.116;2022-09-03T17:32:48;9.80;;;6.80;;
55575;SDS011;41437;45.478;9.116;2022-09-03T17:36:26;10.55;;;6.18;;
55575;SDS011;41437;45.478;9.116;2022-09-03T17:43:17;12.43;;;6.05;;
55575;SDS011;41437;45.478;9.116;2022-09-03T17:46:29;10.18;;;6.38;;
55575;SDS011;41437;45.478;9.116;2022-09-03T17:49:41;10.40;;;6.90;;
55575;SDS011;41437;45.478;9.116;2022-09-03T17:52:47;10.65;;;6.40;;
55575;SDS011;41437;45.478;9.116;2022-09-03T17:55:55;8.48;;;6.45;;
55575;SDS011;41437;45.478;9.116;2022-09-03T17:59:03;7.72;;;6.57;;
55575;SDS011;41437;45.478;9.116;2022-09-03T18:02:15;8.25;;;6.72;;
55575;SDS011;41437;45.478;9.116;2022-09-03T18:05:25;10.20;;;7.15;;
55575;SDS011;41437;45.478;9.116;2022-09-03T18:08:32;12.00;;;7.10;;
55575;SDS011;41437;45.478;9.116;2022-09-03T18:11:45;12.40;;;7.33;;
55575;SDS011;41437;45.478;9.116;2022-09-03T18:14:51;9.82;;;6.97;;
55575;SDS011;41437;45.478;9.116;2022-09-03T18:17:57;10.25;;;7.15;;
55575;SDS011;41437;45.478;9.116;2022-09-03T18:21:06;9.95;;;7.90;;
55575;SDS011;41437;45.478;9.116;2022-09-03T18:24:29;9.30;;;6.82;;
55575;SDS011;41437;45.478;9.116;2022-09-03T18:27:53;12.35;;;6.88;;
55575;SDS011;41437;45.478;9.116;2022-09-03T18:34:36;9.45;;;7.30;;
55575;SDS011;41437;45.478;9.116;2022-09-03T18:37:56;9.90;;;7.68;;
55575;SDS011;41437;45.478;9.116;2022-09-03T18:41:31;9.65;;;7.50;;
55575;SDS011;41437;45.478;9.116;2022-09-03T18:45:06;8.45;;;6.38;;
55575;SDS011;41437;45.478;9.116;2022-09-03T18:48:34;8.20;;;7.38;;
55575;SDS011;41437;45.478;9.116;2022-09-03T18:52:00;9.20;;;6.90;;
55575;SDS011;41437;45.478;9.116;2022-09-03T18:55:29;9.20;;;7.53;;
55575;SDS011;41437;45.478;9.116;2022-09-03T18:59:00;9.95;;;7.55;;
55575;SDS011;41437;45.478;9.116;2022-09-03T19:02:32;11.82;;;8.27;;
55575;SDS011;41437;45.478;9.116;2022-09-03T19:06:06;11.60;;;7.80;;
55575;SDS011;41437;45.478;9.116;2022-09-03T19:09:35;10.43;;;7.63;;
55575;SDS011;41437;45.478;9.116;2022-09-03T19:13:07;12.50;;;7.53;;
55575;SDS011;41437;45.478;9.116;2022-09-03T19:16:41;11.80;;;7.65;;
55575;SDS011;41437;45.478;9.116;2022-09-03T19:20:07;6.93;;;6.20;;
55575;SDS011;41437;45.478;9.116;2022-09-03T19:23:33;12.23;;;7.25;;